• Join FlightAware (Why Join?)
  • Login
  • US Flag 
12:43PM EDT


 

Airport Tracker/Info


-or-


 

Live Flight TrackerFlight Track Log ✈ JIA2558 ✈ 30-Apr-2012 ✈ KDSM - KCLT

Flight Track Log - Related Links

Times and Time Zones

All times are in EDT time to prevent confusion due to time zone crossing. See the JIA2558 flight status page for this flight to view local times or setup timezone preferences in your user account.

Time Position Orientation Groundspeed Altitude Reporting Facility
EDT Latitude Longitude Course Direction KTS MPH feet Rate Location/Type
08:20AM 41.5556 -93.6686 270° West 168 193 1,500  Level Minneapolis Center
08:20AM 41.5556 -93.7075 191° South 173 199 2,900 2,280 Climbing Minneapolis Center
08:21AM 41.5014 -93.7211 161° South 211 243 5,200 2,280 Climbing Minneapolis Center
08:23AM 41.3811 -93.6647 115° Southeast 235 270 10,300 1,860 Climbing Chicago Center
08:24AM 41.3472 -93.5683 116° Southeast 264 304 11,300 1,260 Climbing Chicago Center
08:25AM 41.3075 -93.4581 115° Southeast 302 348 12,900 1,800 Climbing Chicago Center
08:26AM 41.2678 -93.3450 135° Southeast 319 367 14,900 1,920 Climbing Chicago Center
08:27AM 41.2039 -93.2611 138° Southeast 324 373 16,800 1,620 Climbing Chicago Center
08:28AM 41.1339 -93.1769 138° Southeast 329 379 18,200 1,440 Climbing Chicago Center
08:29AM 41.0636 -93.0928 139° Southeast 334 384 19,700 1,320 Climbing Chicago Center
08:30AM 40.9933 -93.0117 139° Southeast 340 391 20,900 1,080 Climbing Chicago Center
08:31AM 40.9189 -92.9253 135° Southeast 350 403 21,900 960 Climbing Chicago Center
08:32AM 40.8447 -92.8278 133° Southeast 361 415 22,900 1,020 Climbing Chicago Center
08:34AM 40.7314 -92.6694 133° Southeast 364 419 24,600 1,020 Climbing Kansas City Center
08:35AM 40.6589 -92.5675 136° Southeast 376 433 25,600 900 Climbing Kansas City Center
08:36AM 40.5781 -92.4633 132° Southeast 382 440 26,500 1,020 Climbing Kansas City Center
08:37AM 40.5056 -92.3561 134° Southeast 377 434 27,700 1,020 Climbing Kansas City Center
08:38AM 40.4414 -92.2683 134° Southeast 372 428 28,600 900 Climbing Kansas City Center
08:39AM 40.3644 -92.1644 134° Southeast 367 422 29,600 660 Climbing Kansas City Center
08:40AM 40.2939 -92.0689 134° Southeast 367 422 30,000 300 Climbing Kansas City Center
08:41AM 40.2208 -91.9708 134° Southeast 372 428 30,300 360 Climbing Kansas City Center
08:42AM 40.1458 -91.8678 135° Southeast 372 428 30,800 480 Climbing Kansas City Center
08:43AM 40.0706 -91.7703 134° Southeast 372 428 31,300 480 Climbing Kansas City Center
08:44AM 40.0019 -91.6781 134° Southeast 377 434 31,800 480 Climbing Kansas City Center
08:45AM 39.9264 -91.5756 134° Southeast 382 440 32,300 480 Climbing Kansas City Center
08:46AM 39.8531 -91.4758 135° Southeast 382 440 32,800 480 Climbing Kansas City Center
08:47AM 39.7778 -91.3792 133° Southeast 382 440 33,300 480 Climbing Kansas City Center
08:48AM 39.7042 -91.2772 135° Southeast 382 440 33,800 480 Climbing Kansas City Center
08:49AM 39.6286 -91.1808 134° Southeast 382 440 34,300 420 Climbing Kansas City Center
08:50AM 39.5572 -91.0847 134° Southeast 377 434 34,700 300 Climbing Kansas City Center
08:51AM 39.4856 -90.9886 136° Southeast 372 428 35,000 120 Climbing Kansas City Center
08:52AM 39.4033 -90.8850 136° Southeast 367 422 35,000  Level Kansas City Center
08:53AM 39.3317 -90.7947 135° Southeast 381 438 35,000  Level Kansas City Center
08:54AM 39.2469 -90.6839 133° Southeast 386 444 35,000  Level Kansas City Center
08:55AM 39.1706 -90.5781 135° Southeast 397 457 35,000  Level Kansas City Center
08:56AM 39.0986 -90.4856 136° Southeast 407 468 35,000  Level Kansas City Center
08:57AM 39.0072 -90.3706 136° Southeast 413 475 35,000  Level Kansas City Center
08:58AM 38.9308 -90.2761 135° Southeast 418 481 35,000  Level Kansas City Center
08:59AM 38.8414 -90.1611 135° Southeast 424 488 35,000  Level Kansas City Center
09:00AM 38.7647 -90.0619 136° Southeast 424 488 35,000  Level Kansas City Center
09:01AM 38.6706 -89.9453 135° Southeast 424 488 35,000  Level Kansas City Center
09:02AM 38.5917 -89.8439 135° Southeast 429 494 35,000  Level Kansas City Center
09:03AM 38.4972 -89.7225 136° Southeast 437 503 35,000  Level Kansas City Center
09:04AM 38.4114 -89.6167 136° Southeast 431 496 35,000  Level Kansas City Center
09:05AM 38.3281 -89.5136 136° Southeast 424 488 35,000  Level Kansas City Center
09:06AM 38.2422 -89.4086 135° Southeast 424 488 35,000  Level Kansas City Center
09:07AM 38.1606 -89.3058 135° Southeast 424 488 35,000  Level Kansas City Center
09:08AM 38.0744 -89.1983 138° Southeast 424 488 35,000  Level Kansas City Center
09:09AM 37.9864 -89.0967 136° Southeast 424 488 35,000  Level Kansas City Center
09:10AM 37.9003 -88.9897 135° Southeast 424 488 35,000  Level Kansas City Center
09:12AM 37.7172 -88.7606 135° Southeast 421 484 35,000  Level Memphis Center
09:13AM 37.6306 -88.6522 136° Southeast 433 498 35,000  Level Memphis Center
09:14AM 37.5414 -88.5444 137° Southeast 433 498 35,000  Level Memphis Center
09:15AM 37.4525 -88.4394 135° Southeast 433 498 35,000  Level Memphis Center
09:16AM 37.3631 -88.3267 136° Southeast 438 504 35,000  Level Memphis Center
09:17AM 37.2758 -88.2194 132° Southeast 438 504 35,000  Level Memphis Center
09:18AM 37.1883 -88.0969 132° Southeast 446 513 35,000  Level Memphis Center
09:19AM 37.1028 -87.9797 132° Southeast 462 532 35,000  Level Memphis Center
09:20AM 37.0108 -87.8525 119° Southeast 462 532 35,000  Level Memphis Center
09:21AM 36.9494 -87.7117 115° Southeast 457 526 35,000  Level Memphis Center
09:22AM 36.8964 -87.5681 116° Southeast 449 517 35,000  Level Memphis Center
09:23AM 36.8408 -87.4275 117° Southeast 449 517 35,000  Level Memphis Center
09:24AM 36.7833 -87.2872 115° Southeast 449 517 35,000  Level Memphis Center
09:25AM 36.7297 -87.1442 117° Southeast 449 517 35,000  Level Memphis Center
09:26AM 36.6717 -87.0017 115° Southeast 449 517 35,000  Level Memphis Center
09:27AM 36.6178 -86.8592 117° Southeast 449 517 35,000  Level Memphis Center
09:28AM 36.5664 -86.7347 117° Southeast 449 517 35,000  Level Memphis Center
09:29AM 36.5078 -86.5903 117° Southeast 455 524 35,000  Level Memphis Center
09:30AM 36.4492 -86.4486 117° Southeast 460 529 35,000  Level Memphis Center
09:31AM 36.3858 -86.2917 117° Southeast 460 529 35,000  Level Memphis Center
09:32AM 36.3289 -86.1503 117° Southeast 460 529 35,000  Level Memphis Center
09:33AM 36.2700 -86.0067 118° Southeast 460 529 35,000  Level Memphis Center
09:35AM 36.1469 -85.7153 118° Southeast 479 551 35,000  Level Atlanta Center
09:36AM 36.0864 -85.5728 111° Southeast 479 551 35,000  Level Atlanta Center
09:37AM 36.0400 -85.4203 96° East 473 544 35,000  Level Atlanta Center
09:38AM 36.0272 -85.2633 96° East 462 532 35,000  Level Atlanta Center
09:39AM 36.0142 -85.1014 94° East 462 532 35,000  Level Atlanta Center
09:40AM 36.0031 -84.9242 97° East 468 539 35,000  Level Atlanta Center
09:41AM 35.9853 -84.7572 97° East 475 547 35,000  Level Atlanta Center
09:42AM 35.9694 -84.5956 96° East 475 547 35,000 -60 Level Atlanta Center
09:43AM 35.9556 -84.4389 96° East 475 547 34,900 -300 Descending Atlanta Center
09:44AM 35.9411 -84.2797 97° East 475 547 34,400 -540 Descending Atlanta Center
09:45AM 35.9247 -84.1233 96° East 463 533 33,900 -540 Descending Atlanta Center
09:46AM 35.9122 -83.9694 94° East 463 533 33,400 -600 Descending Atlanta Center
09:47AM 35.9036 -83.8131 92° East 458 527 32,700 -1,200 Descending Atlanta Center
09:48AM 35.8992 -83.6594 90° East 458 527 31,100 -1,560 Descending Atlanta Center
09:49AM 35.8986 -83.5031 92° East 458 527 29,600 -1,080 Descending Atlanta Center
09:50AM 35.8936 -83.3492 92° East 458 527 29,000 -540 Descending Atlanta Center
09:51AM 35.8886 -83.1981 92° East 453 521 28,600 -1,020 Descending Atlanta Center
09:52AM 35.8853 -83.0494 92° East 443 510 27,000 -1,620 Descending Atlanta Center
09:53AM 35.8819 -82.8983 91° East 438 504 25,400 -1,500 Descending Atlanta Center
09:54AM 35.8806 -82.7497 93° East 438 504 24,000 -720 Descending Atlanta Center
09:55AM 35.8747 -82.6114 91° East 418 481 24,000  Level Atlanta Center
09:56AM 35.8731 -82.4756 97° East 396 456 24,000  Level Atlanta Center
09:57AM 35.8589 -82.3425 112° Southeast 396 456 24,000 -480 Level Atlanta Center
09:58AM 35.8194 -82.2206 112° Southeast 383 441 23,100 -1,800 Descending Atlanta Center
09:59AM 35.7800 -82.0986 114° Southeast 378 435 20,400 -2,580 Descending Atlanta Center
10:00AM 35.7364 -81.9767 113° Southeast 378 435 18,000 -2,520 Descending Atlanta Center
10:01AM 35.6969 -81.8628 111° Southeast 377 434 15,500 -2,400 Descending Atlanta Center
10:02AM 35.6636 -81.7561 112° Southeast 373 429 13,200 -1,920 Descending Atlanta Center
10:03AM 35.6261 -81.6422 121° Southeast 367 422 11,600 -1,140 Descending Atlanta Center
10:04AM 35.5825 -81.5517 108° East 325 374 11,000 -900 Descending Atlanta Center
10:05AM 35.5575 -81.4581 93° East 299 344 9,800 -1,500 Descending Atlanta Center
10:06AM 35.5533 -81.3558 95° East 294 338 8,100 -1,440 Descending Atlanta Center
10:07AM 35.5469 -81.2592 88° East 289 333 7,000 -900 Descending Atlanta Center
10:08AM 35.5492 -81.1722 80° East 269 310 6,300 -660 Descending Atlanta Center
10:09AM 35.5600 -81.0978 87° East 240 276 5,700 -840 Descending Atlanta Center
10:10AM 35.5625 -81.0314 149° Southeast 207 238 4,700 -780 Descending Atlanta Center
10:12AM 35.5136 -80.9950 177° South 174 200 4,000 -300 Descending Atlanta Center
10:13AM 35.4592 -80.9919 174° South 171 197 4,000  Level Atlanta Center
10:14AM 35.4153 -80.9858 177° South 173 199 4,000 -300 Level Atlanta Center
10:15AM 35.3672 -80.9825 175° South 177 204 3,500 -720 Descending Atlanta Center
10:16AM 35.3108 -80.9769 177° South 175 201 2,500 -900 Descending Atlanta Center
10:17AM 35.2647 -80.9736 177° South 168 193 1,600 -900 Descending Atlanta Center